地図

経路データ

SID SEASON NUMBER BASIN SUBBASIN NAME ISO_TIME NATURE LAT LON WMO_WIND WMO_PRES WMO_AGENCY TRACK_TYPE DIST2LAND LANDFALL IFLAG USA_AGENCY USA_ATCF_ID USA_LAT USA_LON USA_RECORD USA_STATUS USA_WIND USA_PRES USA_SSHS USA_R34_NE USA_R34_SE USA_R34_SW USA_R34_NW USA_R50_NE USA_R50_SE USA_R50_SW USA_R50_NW USA_R64_NE USA_R64_SE USA_R64_SW USA_R64_NW USA_POCI USA_ROCI USA_RMW USA_EYE TOKYO_LAT TOKYO_LON TOKYO_GRADE TOKYO_WIND TOKYO_PRES TOKYO_R50_DIR TOKYO_R50_LONG TOKYO_R50_SHORT TOKYO_R30_DIR TOKYO_R30_LONG TOKYO_R30_SHORT TOKYO_LAND CMA_LAT CMA_LON CMA_CAT CMA_WIND CMA_PRES HKO_LAT HKO_LON HKO_CAT HKO_WIND HKO_PRES NEWDELHI_LAT NEWDELHI_LON NEWDELHI_GRADE NEWDELHI_WIND NEWDELHI_PRES NEWDELHI_CI NEWDELHI_DP NEWDELHI_POCI REUNION_LAT REUNION_LON REUNION_TYPE REUNION_WIND REUNION_PRES REUNION_TNUM REUNION_CI REUNION_RMW REUNION_R34_NE REUNION_R34_SE REUNION_R34_SW REUNION_R34_NW REUNION_R50_NE REUNION_R50_SE REUNION_R50_SW REUNION_R50_NW REUNION_R64_NE REUNION_R64_SE REUNION_R64_SW REUNION_R64_NW BOM_LAT BOM_LON BOM_TYPE BOM_WIND BOM_PRES BOM_TNUM BOM_CI BOM_RMW BOM_R34_NE BOM_R34_SE BOM_R34_SW BOM_R34_NW BOM_R50_NE BOM_R50_SE BOM_R50_SW BOM_R50_NW BOM_R64_NE BOM_R64_SE BOM_R64_SW BOM_R64_NW BOM_ROCI BOM_POCI BOM_EYE BOM_POS_METHOD BOM_PRES_METHOD NADI_LAT NADI_LON NADI_CAT NADI_WIND NADI_PRES WELLINGTON_LAT WELLINGTON_LON WELLINGTON_WIND WELLINGTON_PRES DS824_LAT DS824_LON DS824_STAGE DS824_WIND DS824_PRES TD9636_LAT TD9636_LON TD9636_STAGE TD9636_WIND TD9636_PRES TD9635_LAT TD9635_LON TD9635_WIND TD9635_PRES TD9635_ROCI NEUMANN_LAT NEUMANN_LON NEUMANN_CLASS NEUMANN_WIND NEUMANN_PRES MLC_LAT MLC_LON MLC_CLASS MLC_WIND MLC_PRES USA_GUST BOM_GUST BOM_GUST_PER REUNION_GUST REUNION_GUST_PER USA_SEAHGT USA_SEARAD_NE USA_SEARAD_SE USA_SEARAD_SW USA_SEARAD_NW STORM_SPEED STORM_DIR
1939264N23091 1939 63 NI BB NOT_NAMED 1939-09-21 00:00:00 TS 22.8000 90.6000 main 0 0 _________O____ -1 22.8000 90.6000 TC 30 2 311
1939264N23091 1939 63 NI BB NOT_NAMED 1939-09-21 03:00:00 TS 22.8733 90.5067 main 0 0 _________PO___ -1 22.9100 90.4601 TC 30 22.8000 90.6000 1 3 304
1939264N23091 1939 63 NI BB NOT_NAMED 1939-09-21 06:00:00 TS 22.9519 90.3551 main 0 0 _________OP___ -1 23.0000 90.3000 TC 30 22.8798 90.4376 1 3 295
1939264N23091 1939 63 NI BB NOT_NAMED 1939-09-21 09:00:00 TS 23.0147 90.1772 main 0 0 _________PP___ -1 23.0575 90.1075 TC 30 22.9576 90.2701 1 3 289
1939264N23091 1939 63 NI BB NOT_NAMED 1939-09-21 12:00:00 TS 23.0658 89.9963 main 0 0 _________OP___ -1 23.1000 89.9000 TC 30 23.0316 90.0926 1 4 288
1939264N23091 1939 63 NI BB NOT_NAMED 1939-09-21 15:00:00 TS 23.1250 89.8037 main 0 0 _________PO___ -1 23.1499 89.7075 TC 30 23.1000 89.9000 1 4 287
1939264N23091 1939 63 NI BB NOT_NAMED 1939-09-21 18:00:00 TS 23.1806 89.5947 main 0 0 _________OP___ -1 23.2000 89.5000 TC 30 23.1612 89.6894 1 4 285
1939264N23091 1939 63 NI BB NOT_NAMED 1939-09-21 21:00:00 TS 23.2325 89.3575 main 0 0 _________PP___ -1 23.2500 89.2500 TC 30 23.2150 89.4650 1 5 283
1939264N23091 1939 63 NI BB NOT_NAMED 1939-09-22 00:00:00 TS 23.2806 89.1166 main 0 0 _________OP___ -1 23.3000 89.0000 TC 30 23.2612 89.2331 1 4 283
1939264N23091 1939 63 NI BB NOT_NAMED 1939-09-22 03:00:00 TS 23.3287 88.9000 main 0 0 _________PO___ -1 23.3574 88.8000 TC 30 23.3000 89.0000 1 4 283
1939264N23091 1939 63 NI BB NOT_NAMED 1939-09-22 06:00:00 TS 23.3680 88.6915 main 0 0 _________OP___ -1 23.4000 88.6000 TC 30 23.3361 88.7831 1 4 278
1939264N23091 1939 63 NI BB NOT_NAMED 1939-09-22 09:00:00 TS 23.3861 88.4687 main 0 0 _________PP___ -1 23.4074 88.3725 TC 30 23.3647 88.5650 1 4 273
1939264N23091 1939 63 NI BB NOT_NAMED 1939-09-22 12:00:00 TS 23.3930 88.2197 main 0 0 _________OP___ -1 23.4000 88.1000 TC 30 23.3860 88.3394 1 5 272
1939264N23091 1939 63 NI BB NOT_NAMED 1939-09-22 15:00:00 TS 23.4001 87.9212 main 0 0 _________PO___ -1 23.4001 87.7425 TC 30 23.4000 88.1000 1 6 271
1939264N23091 1939 63 NI BB NOT_NAMED 1939-09-22 18:00:00 TS 23.4038 87.5973 main 0 0 _________OP___ -1 23.4000 87.4000 TC 30 23.4075 87.7946 1 6 270
1939264N23091 1939 63 NI BB NOT_NAMED 1939-09-22 21:00:00 TS 23.4040 87.3150 main 0 0 _________PP___ -1 23.3999 87.1475 TC 30 23.4080 87.4824 1 5 270
1939264N23091 1939 63 NI BB NOT_NAMED 1939-09-23 00:00:00 TS 23.4022 87.1020 main 0 0 _________OP___ -1 23.4000 87.0000 TC 30 23.4044 87.2040 1 3 269
1939264N23091 1939 63 NI BB NOT_NAMED 1939-09-23 03:00:00 TS 23.4000 86.9850 main 0 0 _________PO___ -1 23.4000 86.9700 TC 30 23.4000 87.0000 1 1 269
1939264N23091 1939 63 NI BB NOT_NAMED 1939-09-23 06:00:00 TS 23.3999 86.9605 main 0 0 _________OP___ -1 23.4000 87.0000 TC 30 23.3997 86.9209 1 0 0
1939264N23091 1939 63 NI BB NOT_NAMED 1939-09-23 09:00:00 TS 23.3998 86.9588 main 0 0 _________PP___ -1 23.4000 87.0000 TC 30 23.3997 86.9175 1 0 0
1939264N23091 1939 63 NI BB NOT_NAMED 1939-09-23 12:00:00 TS 23.3999 86.9777 main 0 0 _________OP___ -1 23.4000 87.0000 TC 30 23.3998 86.9553 1 0 90
1939264N23091 1939 63 NI BB NOT_NAMED 1939-09-23 15:00:00 TS 23.4000 87.0000 main 0 0 _________PO___ -1 23.4000 87.0000 TC 30 23.4000 87.0000 1 0 90
1939264N23091 1939 63 NI BB NOT_NAMED 1939-09-23 18:00:00 TS 23.3999 87.0223 main 0 0 _________OP___ -1 23.4000 87.0000 TC 30 23.3998 87.0447 1 1 90
1939264N23091 1939 63 NI BB NOT_NAMED 1939-09-23 21:00:00 TS 23.3998 87.0562 main 0 0 _________PP___ -1 23.4000 87.0300 TC 30 23.3997 87.0825 1 0 0
1939264N23091 1939 63 NI BB NOT_NAMED 1939-09-24 00:00:00 TS 23.3999 87.0395 main 0 0 _________OP___ -1 23.4000 87.0000 TC 30 23.3997 87.0791 1 1 270
1939264N23091 1939 63 NI BB NOT_NAMED 1939-09-24 03:00:00 TS 23.4000 86.9262 main 0 0 _________PO___ -1 23.3999 86.8525 TC 30 23.4000 87.0000 1 3 268
1939264N23091 1939 63 NI BB NOT_NAMED 1939-09-24 06:00:00 TS 23.3880 86.6958 main 0 0 _________OP___ -1 23.4000 86.6000 TC 30 23.3760 86.7916 1 5 267
1939264N23091 1939 63 NI BB NOT_NAMED 1939-09-24 09:00:00 TS 23.3704 86.3835 main 0 0 _________PP___ -1 23.3851 86.2574 TC 30 23.3556 86.5095 1 6 269
1939264N23091 1939 63 NI BB NOT_NAMED 1939-09-24 12:00:00 TS 23.3786 86.0489 main 0 0 _________OP___ -1 23.4000 85.9000 TC 30 23.3573 86.1978 1 6 276
1939264N23091 1939 63 NI BB NOT_NAMED 1939-09-24 15:00:00 TS 23.4350 85.7600 main 0 0 _________PO___ -1 23.4699 85.6200 TC 30 23.4000 85.9000 1 5 290
1939264N23091 1939 63 NI BB NOT_NAMED 1939-09-24 18:00:00 TS 23.5555 85.5151 main 0 0 _________OP___ -1 23.6000 85.4000 TC 30 23.5109 85.6303 1 5 305
1939264N23091 1939 63 NI BB NOT_NAMED 1939-09-24 21:00:00 TS 23.7275 85.2967 main 0 0 _________PP___ -1 23.7925 85.2051 TC 30 23.6625 85.3883 1 5 317
1939264N23091 1939 63 NI BB NOT_NAMED 1939-09-25 00:00:00 TS 23.9164 85.1511 main 0 0 _________OP___ -1 24.0000 85.1000 TC 30 23.8328 85.2021 1 4 333
1939264N23091 1939 63 NI BB NOT_NAMED 1939-09-25 03:00:00 TS 24.0825 85.1025 main 0 0 _________PO___ -1 24.1650 85.1049 TC 30 24.0000 85.1000 1 3 0
1939264N23091 1939 63 NI BB NOT_NAMED 1939-09-25 06:00:00 TS 24.2179 85.1365 main 0 0 _________OP___ -1 24.3000 85.2000 TC 30 24.1358 85.0730 1 3 22
1939264N23091 1939 63 NI BB NOT_NAMED 1939-09-25 09:00:00 TS 24.3359 85.2200 main 0 0 _________PP___ -1 24.4074 85.3051 TC 30 24.2643 85.1349 1 3 46
1939264N23091 1939 63 NI BB NOT_NAMED 1939-09-25 12:00:00 TS 24.4429 85.3897 main 0 0 _________OP___ -1 24.5000 85.5000 TC 30 24.3857 85.2794 1 5 62
1939264N23091 1939 63 NI BB NOT_NAMED 1939-09-25 15:00:00 TS 24.5500 85.6600 main 0 0 _________PO___ -1 24.6001 85.8200 TC 30 24.5000 85.5000 1 6 68
1939264N23091 1939 63 NI BB NOT_NAMED 1939-09-25 18:00:00 TS 24.6489 85.9529 main 0 0 _________OP___ -1 24.7000 86.2000 TC 30 24.5977 85.7058 1 6 70
1939264N23091 1939 63 NI BB NOT_NAMED 1939-09-25 21:00:00 TS 24.7410 86.2371 main 0 0 _________PP___ -1 24.7917 86.4829 TC 30 24.6902 85.9913 1 7 73
1939264N23091 1939 63 NI BB NOT_NAMED 1939-09-26 00:00:00 TS 24.8438 86.6406 main 0 0 _________OP___ -1 24.9000 86.9000 TC 30 24.7876 86.3811 1 10 76
1939264N23091 1939 63 NI BB NOT_NAMED 1939-09-26 03:00:00 TS 24.9715 87.2662 main 0 0 _________PO___ -1 25.0429 87.6324 TC 30 24.9000 86.9000 1 13 78
1939264N23091 1939 63 NI BB NOT_NAMED 1939-09-26 06:00:00 TS 25.1126 88.0415 main 0 0 _________OP___ -1 25.2000 88.5000 TC 30 25.0253 87.5829 1 15 79
1939264N23091 1939 63 NI BB NOT_NAMED 1939-09-26 09:00:00 TS 25.2536 88.8479 main 0 0 _________PP___ -1 25.3422 89.3078 TC 30 25.1650 88.3879 1 15 79
1939264N23091 1939 63 NI BB NOT_NAMED 1939-09-26 12:00:00 TS 25.4110 89.6745 main 0 0 _________OP___ -1 25.5000 90.1000 TC 30 25.3219 89.2489 1 15 77
1939264N23091 1939 63 NI BB NOT_NAMED 1939-09-26 15:00:00 TS 25.5923 90.4826 main 0 0 _________PO___ -1 25.6846 90.8652 TC 30 25.5000 90.1000 1 14 75
1939264N23091 1939 63 NI BB NOT_NAMED 1939-09-26 18:00:00 TS 25.7872 91.1939 main 0 0 _________OP___ -1 25.9000 91.6000 TC 30 25.7026 90.8893 1 13 72
1939264N23091 1939 63 NI BB NOT_NAMED 1939-09-26 21:00:00 TS 26.0123 91.8963 main 0 0 _________PP___ -1 26.1431 92.3069 TC 30 25.9251 91.6226 1 13 70
1939264N23091 1939 63 NI BB NOT_NAMED 1939-09-27 00:00:00 TS 26.2401 92.5464 main 0 0 _________OP___ -1 26.4000 93.0000 TC 30 26.1601 92.3197 1 11 69
1939264N23091 1939 63 NI BB NOT_NAMED 1939-09-27 03:00:00 NR 26.4000 93.0000 main 0 __________O___ -1 TC 26.4000 93.0000 1 9 68

IBTrACS Databaseについて

本データベースは、米国NOAAが公開する1842年以降の世界の熱帯低気圧のベストトラックデータアーカイブInternational Best Track Archive for Climate Stewardship (IBTrACS)を、ウェブで閲覧しやすい形式に変換したものです。

最終更新日:2021-11-26